Flight Track Log - Related Links

Times and Time Zones

All times are in EDT time to prevent confusion due to time zone crossing. See the EJA922 flight status page for this flight to view local times or setup timezone preferences in your user account.

Time Position Orientation Groundspeed Altitude Reporting Facility
EDT Latitude Longitude Course Direction KTS MPH feet Rate Location/Type
Tue 12:01:49 PM 39.0675 -94.6731 229° Southwest 218 251 5,600  Level Kansas City Center
Tue 12:02:51 PM 39.0781 -94.7686 278° West 277 319 9,000 2,952 Climbing Kansas City Center
Tue 12:03:53 PM 39.1572 -94.7822 352° North 304 350 11,700 2,208 Climbing Kansas City Center
Tue 12:04:56 PM 39.2606 -94.8022 351° North 343 395 13,600 1,680 Climbing Kansas City Center
Tue 12:05:58 PM 39.3619 -94.8189 353° North 384 442 15,200 1,161 Climbing Kansas City Center
Tue 12:07:00 PM 39.4856 -94.8411 352° North 402 463 16,000 387 Climbing Kansas City Center
Tue 12:08:02 PM 39.5956 -94.8603 352° North 416 479 16,000  Level Kansas City Center
Tue 12:09:04 PM 39.7214 -94.8833 352° North 410 472 16,000  Level Kansas City Center
Tue 12:10:06 PM 39.8339 -94.9036 352° North 425 489 16,000  Level Kansas City Center
Tue 12:11:08 PM 39.9686 -94.9281 352° North 436 502 16,000  Level Kansas City Center
Tue 12:12:10 PM 40.0844 -94.9503 352° North 438 504 16,000 48 Level Kansas City Center
Tue 12:13:12 PM 40.2183 -94.9775 351° North 438 504 16,100 48 Climbing Kansas City Center
Tue 12:14:14 PM 40.3339 -95.0011 351° North 438 504 16,100 -60 Level Kansas City Center
Tue 12:14:52 PM 40.4133 -95.0147 353° North 437 503 16,000 -60 Descending Minneapolis Center
Tue 12:15:54 PM 40.5336 -95.0375 352° North 438 504 16,000  Level Minneapolis Center
Tue 12:16:37 PM 40.6433 -95.0461 357° North 436 502 16,000 -590 Level Minneapolis Center
Tue 12:17:56 PM 40.7919 -95.1014 344° North 417 480 14,800 -1,678 Descending Minneapolis Center
Tue 12:19:00 PM 40.8583 -95.2203 306° West 391 450 12,000 -2,508 Descending Minneapolis Center
Tue 12:19:58 PM 40.9269 -95.3189 313° West 350 403 9,700 -2,186 Descending Minneapolis Center
Tue 12:20:58 PM 40.9769 -95.4039 308° West 282 325 7,700 -1,930 Descending Minneapolis Center
Tue 12:21:53 PM 41.0258 -95.4725 313° West 278 320 6,000 -887 Descending Minneapolis Center
Tue 12:22:53 PM 41.0861 -95.5286 325° Northwest 264 304 6,000  Level Minneapolis Center
Tue 12:23:48 PM 41.1464 -95.5822 326° Northwest 282 325 6,000  Level Minneapolis Center
Tue 12:24:22 PM 41.1678 -95.6011 326° Northwest 278 320 6,000 -1,315 Level Minneapolis Center
Tue 12:25:01 PM 41.2264 -95.6503 328° Northwest 277 319 4,400 -1,143 Descending Minneapolis Center
Tue 12:26:07 PM 41.2908 -95.7036 328° Northwest 246 283 4,000 -283 Descending Minneapolis Center
Tue 12:27:08 PM 41.3403 -95.7561 321° Northwest 214 246 3,800 -462 Descending Minneapolis Center
Tue 12:28:30 PM 41.3644 -95.8328 293° West 203 234 2,900 -756 Descending Minneapolis Center
Tue 12:29:15 PM 41.3578 -95.8900 261° West 148 170 2,200 -849 Descending Minneapolis Center
Tue 12:30:16 PM 41.3281 -95.9186 216° Southwest 139 160 1,400 -787 Descending Minneapolis Center

Login

Don't have an account? Register now (free) for customized features, flight alerts, and more!